createdAt,value
2022-11-16T00:01:13.202Z,32.33
2022-11-16T00:03:40.788Z,32.97
2022-11-16T00:06:09.204Z,31.02
2022-11-16T00:08:38.955Z,31.27
2022-11-16T00:11:15.429Z,29.85
2022-11-16T00:13:43.804Z,30.08
2022-11-16T00:16:17.876Z,27.40
2022-11-16T00:18:45.160Z,28.52
2022-11-16T00:21:11.940Z,28.92
2022-11-16T00:23:39.944Z,28.98
2022-11-16T00:26:08.610Z,28.27
2022-11-16T00:28:36.557Z,30.63
2022-11-16T00:31:07.123Z,31.35
2022-11-16T00:33:34.937Z,33.60
2022-11-16T00:36:03.941Z,30.00
2022-11-16T00:38:31.878Z,30.35
2022-11-16T00:40:59.253Z,30.33
2022-11-16T00:43:26.769Z,31.10
2022-11-16T00:45:53.998Z,28.23
2022-11-16T00:48:21.688Z,30.10
2022-11-16T00:50:48.775Z,27.02
2022-11-16T00:53:18.356Z,28.50
2022-11-16T00:55:46.628Z,27.45
2022-11-16T01:00:45.165Z,26.40
2022-11-16T01:03:12.158Z,28.90
2022-11-16T01:05:39.297Z,28.55
2022-11-16T01:08:07.813Z,30.80
2022-11-16T01:10:39.789Z,29.35
2022-11-16T01:13:07.236Z,27.85
2022-11-16T01:15:35.193Z,27.65
2022-11-16T01:18:02.072Z,28.00
2022-11-16T01:20:29.946Z,26.75
2022-11-16T01:22:56.974Z,27.70
2022-11-16T01:25:23.972Z,28.05
2022-11-16T01:27:51.070Z,29.58
2022-11-16T01:30:25.131Z,30.77
2022-11-16T01:33:05.407Z,32.60
2022-11-16T01:35:32.339Z,32.45
2022-11-16T01:37:59.635Z,35.40
2022-11-16T01:40:28.173Z,32.95
2022-11-16T01:42:54.988Z,39.25
2022-11-16T01:45:35.421Z,45.92
2022-11-16T01:48:05.491Z,53.63
2022-11-16T01:50:34.946Z,56.88
2022-11-16T01:53:06.021Z,56.97
2022-11-16T01:55:43.425Z,55.55
2022-11-16T01:58:21.312Z,62.35
2022-11-16T02:00:53.218Z,60.33
2022-11-16T02:03:29.861Z,59.53
2022-11-16T02:06:27.480Z,56.13
2022-11-16T02:09:51.933Z,57.17
2022-11-16T02:12:38.213Z,54.63
2022-11-16T02:15:31.881Z,58.22
2022-11-16T02:18:57.246Z,62.38
2022-11-16T02:21:37.180Z,64.50
2022-11-16T02:24:19.215Z,67.33
2022-11-16T02:27:07.704Z,63.65
2022-11-16T02:29:37.416Z,62.38
2022-11-16T02:34:58.309Z,67.22
2022-11-16T02:37:28.725Z,71.93
2022-11-16T02:39:59.687Z,69.13
2022-11-16T02:42:34.559Z,67.25
2022-11-16T02:45:06.939Z,62.28
2022-11-16T02:47:35.799Z,57.45
2022-11-16T02:50:14.309Z,55.63
2022-11-16T02:52:41.337Z,59.45
2022-11-16T02:55:10.538Z,58.25
2022-11-16T02:57:46.488Z,56.97
2022-11-16T03:00:26.661Z,52.17
2022-11-16T03:03:19.015Z,53.20
2022-11-16T03:05:58.358Z,50.58
2022-11-16T03:08:42.207Z,50.00
2022-11-16T03:11:30.402Z,47.30
2022-11-16T03:14:05.819Z,47.58
2022-11-16T03:16:40.814Z,50.08
2022-11-16T03:19:13.834Z,46.63
2022-11-16T03:22:05.536Z,47.30
2022-11-16T03:24:33.534Z,47.25
2022-11-16T03:27:15.537Z,49.67
2022-11-16T03:29:42.441Z,48.53
2022-11-16T03:32:33.892Z,48.25
2022-11-16T03:35:19.947Z,45.50
2022-11-16T03:37:50.693Z,46.95
2022-11-16T03:40:19.435Z,47.70
2022-11-16T03:42:49.778Z,44.10
2022-11-16T03:45:19.170Z,44.95
2022-11-16T03:47:46.334Z,42.00
2022-11-16T03:50:14.080Z,44.45
2022-11-16T03:52:42.120Z,42.90
2022-11-16T03:55:09.670Z,43.55
2022-11-16T03:57:41.389Z,42.42
2022-11-16T04:00:09.456Z,42.97
2022-11-16T04:02:42.972Z,43.15
2022-11-16T04:05:34.302Z,42.17
2022-11-16T04:08:19.706Z,42.40
2022-11-16T04:11:05.337Z,41.95
2022-11-16T04:13:53.955Z,41.72
2022-11-16T04:16:39.574Z,42.33
2022-11-16T04:19:29.859Z,40.75
2022-11-16T04:22:22.834Z,43.60
2022-11-16T04:24:55.002Z,41.55
2022-11-16T04:27:47.060Z,42.65
2022-11-16T04:30:14.571Z,40.42
2022-11-16T04:33:01.003Z,40.35
2022-11-16T04:35:48.131Z,41.05
2022-11-16T04:38:15.170Z,37.72
2022-11-16T04:40:42.107Z,40.40
2022-11-16T04:43:11.485Z,38.28
2022-11-16T04:45:59.431Z,40.47
2022-11-16T04:48:33.816Z,40.67
2022-11-16T04:51:02.520Z,41.15
2022-11-16T04:53:29.899Z,40.00
2022-11-16T04:56:07.266Z,41.53
2022-11-16T04:58:34.941Z,38.28
2022-11-16T05:01:02.513Z,39.65
2022-11-16T05:03:29.422Z,39.80
2022-11-16T05:05:56.291Z,38.83
2022-11-16T05:08:23.316Z,39.58
2022-11-16T05:10:52.359Z,38.55
2022-11-16T05:13:19.951Z,40.03
2022-11-16T05:15:49.321Z,38.78
2022-11-16T05:18:16.604Z,39.33
2022-11-16T05:21:01.890Z,39.33
2022-11-16T05:23:56.200Z,36.53
2022-11-16T05:26:25.891Z,37.10
2022-11-16T05:28:54.271Z,41.25
2022-11-16T05:31:21.176Z,42.17
2022-11-16T05:33:48.588Z,40.28
2022-11-16T05:36:16.270Z,43.15
2022-11-16T05:38:43.238Z,41.15
2022-11-16T05:41:10.358Z,39.45
2022-11-16T05:43:37.879Z,37.40
2022-11-16T05:46:13.702Z,37.42
2022-11-16T05:48:40.703Z,36.38
2022-11-16T05:51:08.674Z,37.63
2022-11-16T05:53:35.630Z,37.35
2022-11-16T05:56:03.037Z,37.90
2022-11-16T05:58:33.282Z,41.78
2022-11-16T06:01:00.895Z,39.58
2022-11-16T06:03:31.748Z,37.63
2022-11-16T06:05:59.760Z,39.45
2022-11-16T06:08:28.333Z,38.03
2022-11-16T06:11:00.897Z,37.43
2022-11-16T06:13:27.845Z,37.97
2022-11-16T06:15:57.598Z,39.38
2022-11-16T06:18:24.783Z,37.70
2022-11-16T06:20:51.780Z,39.35
2022-11-16T06:23:21.453Z,35.90
2022-11-16T06:25:53.957Z,37.13
2022-11-16T06:28:21.846Z,37.78
2022-11-16T06:30:49.337Z,39.20
2022-11-16T06:33:17.120Z,40.92
2022-11-16T06:35:44.464Z,40.10
2022-11-16T06:40:52.540Z,37.67
2022-11-16T06:43:21.421Z,35.38
2022-11-16T06:45:53.917Z,36.47
2022-11-16T06:48:20.978Z,35.25
2022-11-16T06:50:49.913Z,34.05
2022-11-16T06:53:19.492Z,34.58
2022-11-16T06:55:48.287Z,34.15
2022-11-16T06:58:15.802Z,35.55
2022-11-16T07:00:44.088Z,37.90
2022-11-16T07:03:11.776Z,36.72
2022-11-16T07:05:41.290Z,35.17
2022-11-16T07:08:12.775Z,33.55
2022-11-16T07:10:40.125Z,35.83
2022-11-16T07:13:07.832Z,35.20
2022-11-16T07:15:37.835Z,34.53
2022-11-16T07:18:07.555Z,36.35
2022-11-16T07:20:38.776Z,37.05
2022-11-16T07:23:09.077Z,33.83
2022-11-16T07:25:40.352Z,36.55
2022-11-16T07:28:07.931Z,35.88
2022-11-16T07:30:35.729Z,34.53
2022-11-16T07:33:17.271Z,33.83
2022-11-16T07:36:13.139Z,34.47
2022-11-16T07:38:40.737Z,35.67
2022-11-16T07:41:11.827Z,32.80
2022-11-16T07:43:52.619Z,30.48
2022-11-16T07:49:18.958Z,37.55
2022-11-16T07:51:55.162Z,39.85
2022-11-16T07:54:40.953Z,34.72
2022-11-16T07:57:08.499Z,36.08
2022-11-16T07:59:35.522Z,33.25
2022-11-16T08:02:04.298Z,31.05
2022-11-16T08:04:32.079Z,34.35
2022-11-16T08:06:59.642Z,33.47
2022-11-16T08:09:31.118Z,33.33
2022-11-16T08:11:58.404Z,34.55
2022-11-16T08:14:25.236Z,38.75
2022-11-16T08:16:55.335Z,35.70
2022-11-16T08:19:29.475Z,36.25
2022-11-16T08:21:58.174Z,42.67
2022-11-16T08:24:28.557Z,42.25
2022-11-16T08:26:57.336Z,35.92
2022-11-16T08:29:24.277Z,34.80
2022-11-16T08:31:51.918Z,33.05
2022-11-16T08:34:21.482Z,35.13
2022-11-16T08:36:56.186Z,37.15
2022-11-16T08:39:29.454Z,35.42
2022-11-16T08:41:56.636Z,36.42
2022-11-16T08:44:23.693Z,42.50
2022-11-16T08:46:53.378Z,38.78
2022-11-16T08:49:35.286Z,37.22
2022-11-16T08:52:02.327Z,43.47
2022-11-16T08:54:30.696Z,38.47
2022-11-16T08:56:57.871Z,40.28
2022-11-16T08:59:24.903Z,42.72
2022-11-16T09:01:55.517Z,35.45
2022-11-16T09:04:23.523Z,34.15
2022-11-16T09:06:53.063Z,35.13
2022-11-16T09:09:20.002Z,36.03
2022-11-16T09:11:46.918Z,36.10
2022-11-16T09:14:14.151Z,40.17
2022-11-16T09:16:41.067Z,40.95
2022-11-16T09:19:22.119Z,41.40
2022-11-16T09:21:57.247Z,35.28
2022-11-16T09:24:24.123Z,35.63
2022-11-16T09:26:51.101Z,38.63
2022-11-16T09:29:17.947Z,40.17
2022-11-16T09:31:45.413Z,36.03
2022-11-16T09:34:12.326Z,38.40
2022-11-16T09:36:39.225Z,44.70
2022-11-16T09:42:02.753Z,40.78
2022-11-16T09:45:17.132Z,38.60
2022-11-16T09:47:51.322Z,41.55
2022-11-16T09:50:43.601Z,41.42
2022-11-16T09:53:46.523Z,43.03
2022-11-16T09:56:27.220Z,38.25
2022-11-16T09:59:04.300Z,41.70
2022-11-16T10:01:42.317Z,38.58
2022-11-16T10:04:12.901Z,46.38
2022-11-16T10:07:17.974Z,46.08
2022-11-16T10:09:46.797Z,44.85
2022-11-16T10:12:30.691Z,45.33
2022-11-16T10:15:07.418Z,46.35
2022-11-16T10:17:52.930Z,47.03
2022-11-16T10:20:30.413Z,47.17
2022-11-16T10:23:28.719Z,50.13
2022-11-16T10:26:22.359Z,43.28
2022-11-16T10:29:31.700Z,43.53
2022-11-16T10:32:17.413Z,44.13
2022-11-16T10:34:50.436Z,49.58
2022-11-16T10:37:18.018Z,48.30
2022-11-16T10:39:48.811Z,54.17
2022-11-16T10:42:35.706Z,45.28
2022-11-16T10:45:08.305Z,44.72
2022-11-16T10:47:45.210Z,45.80
2022-11-16T10:50:39.520Z,52.88
2022-11-16T10:53:06.697Z,44.97
2022-11-16T10:55:33.484Z,45.25
2022-11-16T10:58:05.829Z,46.97
2022-11-16T11:00:38.717Z,47.05
2022-11-16T11:03:06.241Z,45.47
2022-11-16T11:05:35.279Z,46.45
2022-11-16T11:08:10.275Z,54.13
2022-11-16T11:10:40.003Z,52.00
2022-11-16T11:13:27.370Z,48.22
2022-11-16T11:16:15.203Z,44.08
2022-11-16T11:18:42.630Z,47.95
2022-11-16T11:21:21.038Z,48.35
2022-11-16T11:24:10.569Z,44.60
2022-11-16T11:26:49.507Z,41.30
2022-11-16T11:29:20.166Z,45.83
2022-11-16T11:31:54.419Z,42.38
2022-11-16T11:34:30.816Z,43.33
2022-11-16T11:37:03.054Z,41.17
2022-11-16T11:39:37.390Z,44.63
2022-11-16T11:42:13.442Z,43.10
2022-11-16T11:45:01.973Z,42.80
2022-11-16T11:50:48.507Z,46.10
2022-11-16T11:53:34.385Z,47.80
2022-11-16T11:56:05.113Z,49.97
2022-11-16T11:58:38.724Z,54.70
2022-11-16T12:01:38.439Z,57.97
2022-11-16T12:04:08.154Z,50.30
2022-11-16T12:06:59.825Z,52.92
2022-11-16T12:09:51.156Z,46.92
2022-11-16T12:12:39.694Z,44.38
2022-11-16T12:15:21.779Z,47.80
2022-11-16T12:17:55.756Z,47.88
2022-11-16T12:20:29.823Z,43.60
2022-11-16T12:23:17.370Z,47.58
2022-11-16T12:26:14.205Z,43.10
2022-11-16T12:29:01.485Z,41.67
2022-11-16T12:31:37.028Z,41.83
2022-11-16T12:34:28.329Z,40.50
2022-11-16T12:37:11.071Z,38.55
2022-11-16T12:40:04.971Z,40.58
2022-11-16T12:42:59.687Z,40.85
2022-11-16T12:45:45.605Z,47.08
2022-11-16T12:48:55.774Z,49.95
2022-11-16T12:51:41.384Z,44.25
2022-11-16T12:55:03.944Z,45.70
2022-11-16T12:57:34.245Z,37.17
2022-11-16T13:00:13.062Z,35.60
2022-11-16T13:02:52.065Z,31.48
2022-11-16T13:05:28.133Z,31.60
2022-11-16T13:08:02.374Z,29.15
2022-11-16T13:10:34.496Z,30.80
2022-11-16T13:15:53.344Z,40.95
2022-11-16T13:18:22.253Z,45.83
2022-11-16T13:20:53.285Z,39.92
2022-11-16T13:23:33.637Z,40.60
2022-11-16T13:26:10.608Z,37.38
2022-11-16T13:28:40.575Z,40.45
2022-11-16T13:34:03.448Z,35.90
2022-11-16T13:36:37.050Z,37.47
2022-11-16T13:39:06.362Z,37.80
2022-11-16T13:41:38.813Z,38.42
2022-11-16T13:44:28.071Z,36.92
2022-11-16T13:47:04.500Z,36.63
2022-11-16T13:49:41.814Z,38.97
2022-11-16T13:52:23.283Z,36.42
2022-11-16T13:54:54.976Z,37.30
2022-11-16T13:57:27.101Z,40.90
2022-11-16T14:00:03.031Z,40.65
2022-11-16T14:02:37.261Z,41.17
2022-11-16T14:05:13.205Z,39.58
2022-11-16T14:07:47.332Z,41.70
2022-11-16T14:10:36.135Z,41.22
2022-11-16T14:13:04.623Z,42.97
2022-11-16T14:15:34.113Z,33.60
2022-11-16T14:18:04.063Z,37.72
2022-11-16T14:21:25.743Z,38.05
2022-11-16T14:24:31.463Z,37.88
2022-11-16T14:27:30.475Z,37.00
2022-11-16T14:30:16.214Z,37.08
2022-11-16T14:32:55.280Z,42.50
2022-11-16T14:35:39.512Z,45.97
2022-11-16T14:38:35.660Z,30.95
2022-11-16T14:41:05.694Z,32.15
2022-11-16T14:48:50.375Z,33.50
2022-11-16T14:51:24.825Z,33.45
2022-11-16T14:54:00.064Z,35.60
2022-11-16T14:56:27.258Z,28.10
2022-11-16T14:58:59.509Z,25.50
2022-11-16T15:01:29.791Z,22.95
2022-11-16T15:04:04.534Z,23.30
2022-11-16T15:06:42.390Z,23.10
2022-11-16T15:09:19.922Z,24.58
2022-11-16T15:12:08.596Z,24.63
2022-11-16T15:14:41.849Z,25.35
2022-11-16T15:17:10.087Z,27.15
2022-11-16T15:19:36.940Z,28.80
2022-11-16T15:22:04.897Z,26.67
2022-11-16T15:24:34.396Z,28.75
2022-11-16T15:27:30.144Z,27.30
2022-11-16T15:29:57.163Z,25.63
2022-11-16T15:32:24.027Z,28.30
2022-11-16T15:34:54.494Z,22.77
2022-11-16T15:37:31.177Z,23.67
2022-11-16T15:40:00.174Z,23.02
2022-11-16T15:42:31.513Z,25.33
2022-11-16T15:45:01.650Z,25.30
2022-11-16T15:49:55.556Z,26.30
2022-11-16T15:52:41.126Z,30.88
2022-11-16T15:55:21.322Z,31.75
2022-11-16T15:58:25.828Z,25.23
2022-11-16T16:00:54.727Z,20.35
2022-11-16T16:03:27.065Z,22.35
2022-11-16T16:05:55.035Z,18.77
2022-11-16T16:08:27.895Z,13.00
2022-11-16T16:11:07.050Z,13.23
2022-11-16T16:14:01.524Z,11.35
2022-11-16T16:16:37.960Z,10.40
2022-11-16T16:19:24.412Z,11.52
2022-11-16T16:21:51.890Z,10.60
2022-11-16T16:24:41.226Z,10.15
2022-11-16T16:27:19.425Z,11.35
2022-11-16T16:29:48.293Z,9.57
2022-11-16T16:32:26.382Z,10.13
2022-11-16T16:34:55.218Z,9.18
2022-11-16T16:37:22.837Z,9.38
2022-11-16T16:39:49.668Z,9.35
2022-11-16T16:42:18.058Z,10.70
2022-11-16T16:44:46.185Z,10.27
2022-11-16T16:47:14.053Z,10.93
2022-11-16T16:49:41.520Z,11.52
2022-11-16T16:52:10.814Z,10.98
2022-11-16T16:54:38.047Z,11.13
2022-11-16T16:57:04.905Z,11.93
2022-11-16T16:59:31.900Z,11.90
2022-11-16T17:01:59.505Z,12.35
2022-11-16T17:04:26.496Z,13.73
2022-11-16T17:06:54.575Z,13.55
2022-11-16T17:09:21.633Z,14.57
2022-11-16T17:11:48.660Z,14.30
2022-11-16T17:14:15.622Z,16.10
2022-11-16T17:16:42.508Z,15.43
2022-11-16T17:19:09.382Z,14.38
2022-11-16T17:21:36.182Z,14.07
2022-11-16T17:24:03.179Z,15.07
2022-11-16T17:26:30.178Z,15.68
2022-11-16T17:28:58.222Z,14.90
2022-11-16T17:31:26.449Z,15.68
2022-11-16T17:33:53.617Z,16.83
2022-11-16T17:36:20.874Z,18.50
2022-11-16T17:38:47.750Z,20.05
2022-11-16T17:41:15.808Z,17.08
2022-11-16T17:43:44.105Z,19.13
2022-11-16T17:46:13.622Z,18.13
2022-11-16T17:48:43.435Z,20.73
2022-11-16T17:51:15.973Z,20.08
2022-11-16T17:53:44.445Z,19.00
2022-11-16T17:56:17.066Z,19.50
2022-11-16T17:58:45.451Z,19.90
2022-11-16T18:01:13.922Z,18.83
2022-11-16T18:03:40.888Z,19.58
2022-11-16T18:06:16.130Z,19.98
2022-11-16T18:08:46.597Z,20.30
2022-11-16T18:11:17.953Z,20.48
2022-11-16T18:13:46.069Z,18.42
2022-11-16T18:16:17.937Z,19.98
2022-11-16T18:18:47.216Z,20.48
2022-11-16T18:21:20.321Z,17.50
2022-11-16T18:23:48.324Z,18.20
2022-11-16T18:26:21.366Z,18.23
2022-11-16T18:28:49.582Z,17.00
2022-11-16T18:31:20.164Z,19.35
2022-11-16T18:33:49.301Z,18.13
2022-11-16T18:36:17.237Z,18.50
2022-11-16T18:38:44.586Z,18.92
2022-11-16T18:41:11.450Z,20.45
2022-11-16T18:43:47.573Z,20.38
2022-11-16T18:46:14.758Z,17.75
2022-11-16T18:48:43.181Z,18.48
2022-11-16T18:51:11.532Z,17.55
2022-11-16T18:53:38.697Z,17.52
2022-11-16T18:56:06.414Z,19.13
2022-11-16T18:58:49.828Z,19.30
2022-11-16T19:01:19.048Z,22.70
2022-11-16T19:03:46.196Z,20.77
2022-11-16T19:06:14.975Z,21.02
2022-11-16T19:08:42.729Z,20.02
2022-11-16T19:11:14.957Z,20.17
2022-11-16T19:13:43.461Z,20.35
2022-11-16T19:16:12.757Z,19.25
2022-11-16T19:18:39.962Z,19.63
2022-11-16T19:21:12.786Z,18.90
2022-11-16T19:23:45.064Z,21.42
2022-11-16T19:26:13.833Z,20.58
2022-11-16T19:28:43.091Z,20.50
2022-11-16T19:31:12.086Z,19.25
2022-11-16T19:33:39.346Z,20.98
2022-11-16T19:36:10.685Z,21.48
2022-11-16T19:38:38.315Z,25.60
2022-11-16T19:41:06.596Z,26.45
2022-11-16T19:43:34.325Z,28.17
2022-11-16T19:46:06.200Z,23.90
2022-11-16T19:48:33.650Z,23.08
2022-11-16T19:51:08.689Z,21.60
2022-11-16T19:53:36.538Z,22.17
2022-11-16T19:56:04.746Z,23.13
2022-11-16T19:58:32.298Z,23.33
2022-11-16T20:01:07.681Z,25.02
2022-11-16T20:03:35.120Z,29.13
2022-11-16T20:06:07.372Z,28.38
2022-11-16T20:08:34.819Z,28.55
2022-11-16T20:11:01.682Z,29.13
2022-11-16T20:13:28.611Z,32.17
2022-11-16T20:15:55.490Z,33.22
2022-11-16T20:18:22.384Z,33.80
2022-11-16T20:20:49.219Z,33.28
2022-11-16T20:23:16.117Z,33.38
2022-11-16T20:25:42.947Z,33.88
2022-11-16T20:28:09.894Z,33.25
2022-11-16T20:30:37.967Z,34.25
2022-11-16T20:33:05.063Z,36.38
2022-11-16T20:35:33.420Z,31.45
2022-11-16T20:38:00.386Z,33.92
2022-11-16T20:40:27.215Z,37.15
2022-11-16T20:42:59.172Z,39.85
2022-11-16T20:45:27.174Z,38.90
2022-11-16T20:47:53.990Z,34.38
2022-11-16T20:50:20.859Z,36.55
2022-11-16T20:52:52.568Z,32.78
2022-11-16T20:55:19.749Z,34.92
2022-11-16T20:57:46.577Z,34.13
2022-11-16T21:00:14.184Z,31.33
2022-11-16T21:02:40.976Z,37.05
2022-11-16T21:05:08.208Z,43.00
2022-11-16T21:07:35.570Z,43.40
2022-11-16T21:10:20.884Z,33.60
2022-11-16T21:13:06.214Z,38.13
2022-11-16T21:15:33.232Z,37.60
2022-11-16T21:18:00.090Z,35.58
2022-11-16T21:20:28.387Z,34.35
2022-11-16T21:22:55.684Z,37.70
2022-11-16T21:25:22.727Z,38.80
2022-11-16T21:27:49.586Z,42.30
2022-11-16T21:30:16.820Z,40.55
2022-11-16T21:32:43.683Z,40.00
2022-11-16T21:35:10.537Z,41.60
2022-11-16T21:37:37.435Z,45.00
2022-11-16T21:40:04.565Z,44.47
2022-11-16T21:42:31.427Z,37.42
2022-11-16T21:44:58.287Z,35.55
2022-11-16T21:47:25.088Z,35.60
2022-11-16T21:50:16.846Z,35.88
2022-11-16T21:52:38.777Z,35.97
2022-11-16T21:55:05.810Z,42.38
2022-11-16T21:57:32.739Z,41.90
2022-11-16T22:00:01.275Z,39.28
2022-11-16T22:02:38.386Z,36.95
2022-11-16T22:05:24.465Z,40.03
2022-11-16T22:07:52.320Z,41.35
2022-11-16T22:10:19.296Z,41.67
2022-11-16T22:12:46.190Z,44.40
2022-11-16T22:15:14.180Z,37.70
2022-11-16T22:17:45.029Z,38.20
2022-11-16T22:20:12.755Z,39.33
2022-11-16T22:22:40.007Z,43.67
2022-11-16T22:25:07.384Z,45.17
2022-11-16T22:27:52.103Z,42.20
2022-11-16T22:30:21.594Z,40.95
2022-11-16T22:32:48.424Z,40.80
2022-11-16T22:35:15.323Z,44.65
2022-11-16T22:37:42.438Z,42.67
2022-11-16T22:40:14.966Z,42.88
2022-11-16T22:42:44.601Z,41.00
2022-11-16T22:45:12.238Z,41.72
2022-11-16T22:47:39.237Z,46.60
2022-11-16T22:50:06.454Z,42.65
2022-11-16T22:52:33.416Z,46.03
2022-11-16T22:55:00.280Z,41.90
2022-11-16T22:57:27.120Z,43.95
2022-11-16T22:59:54.105Z,51.95
2022-11-16T23:02:20.952Z,43.33
2022-11-16T23:04:47.766Z,43.33
2022-11-16T23:07:14.672Z,41.00
2022-11-16T23:09:41.566Z,39.17
2022-11-16T23:12:27.436Z,41.38
2022-11-16T23:15:12.992Z,41.30
2022-11-16T23:17:39.968Z,41.00
2022-11-16T23:20:25.995Z,42.00
2022-11-16T23:23:11.320Z,42.92
2022-11-16T23:25:56.689Z,44.08
2022-11-16T23:28:23.693Z,41.75
2022-11-16T23:30:50.551Z,45.85
2022-11-16T23:33:17.485Z,43.78
2022-11-16T23:35:44.309Z,44.88
2022-11-16T23:38:11.154Z,42.03
2022-11-16T23:40:39.695Z,42.70
2022-11-16T23:43:28.592Z,43.90
2022-11-16T23:45:55.568Z,42.63
2022-11-16T23:48:22.398Z,43.63
2022-11-16T23:50:49.310Z,46.72
2022-11-16T23:53:16.212Z,48.75
2022-11-16T23:55:43.170Z,46.25
2022-11-16T23:58:14.445Z,46.58
